Time;durP1;ratioP1;P1;durP2;ratioP2;P2;SDS_P1;SDS_P2;PMS_P1;PMS_P2;Temp;Humidity;BMP_temperature;BMP_pressure;BME280_temperature;BME280_humidity;BME280_pressure;Samples;Min_cycle;Max_cycle;Signal;HPM_P1;HPM_P2
2022/03/31 00:00:33;;;;;;;34.33;17.20;;;9.00;90.60;;;;;;5017122;28;20811;-76
2022/03/31 00:02:59;;;;;;;34.53;16.70;;;9.00;90.40;;;;;;5022042;28;20476;-76
2022/03/31 00:05:25;;;;;;;39.97;17.00;;;8.90;90.60;;;;;;5006958;28;20435;-77
2022/03/31 00:07:54;;;;;;;34.33;16.40;;;8.90;90.40;;;;;;5015956;28;20424;-75
2022/03/31 00:10:21;;;;;;;32.97;15.43;;;8.90;90.40;;;;;;5014019;28;20460;-75
2022/03/31 00:12:47;;;;;;;34.80;16.90;;;8.90;90.80;;;;;;4999396;28;20978;-74
2022/03/31 00:15:13;;;;;;;35.50;16.60;;;8.90;90.80;;;;;;5015573;28;20908;-78
2022/03/31 00:17:38;;;;;;;36.33;15.77;;;8.90;91.10;;;;;;5011318;28;20429;-78
2022/03/31 00:20:05;;;;;;;34.90;16.40;;;8.80;91.20;;;;;;5010595;28;20428;-77
2022/03/31 00:22:30;;;;;;;36.77;17.13;;;8.80;91.40;;;;;;5014915;28;20197;-78
2022/03/31 00:24:56;;;;;;;34.97;15.80;;;8.90;91.40;;;;;;5024245;28;20918;-76
2022/03/31 00:27:22;;;;;;;37.73;17.80;;;8.90;91.20;;;;;;5015001;28;20177;-76
2022/03/31 00:29:47;;;;;;;35.50;16.43;;;8.90;90.80;;;;;;5012555;28;20189;-76
2022/03/31 00:32:13;;;;;;;34.73;15.50;;;8.90;90.60;;;;;;5006237;28;20685;-78
2022/03/31 00:34:39;;;;;;;37.50;15.90;;;8.90;90.40;;;;;;5012181;28;20202;-76
2022/03/31 00:37:05;;;;;;;35.80;15.90;;;8.90;90.40;;;;;;5004488;28;20240;-77
2022/03/31 00:39:34;;;;;;;33.77;15.30;;;8.90;90.40;;;;;;5008420;28;20429;-77
2022/03/31 00:42:02;;;;;;;36.80;16.80;;;8.80;90.30;;;;;;5010000;28;20512;-78
2022/03/31 00:44:29;;;;;;;32.40;15.43;;;8.80;89.90;;;;;;5006328;28;20722;-77
2022/03/31 00:46:55;;;;;;;33.90;15.00;;;8.70;89.90;;;;;;5006694;28;20520;-77
2022/03/31 00:49:23;;;;;;;30.37;14.00;;;8.70;89.50;;;;;;5004141;28;20417;-76
2022/03/31 00:51:50;;;;;;;28.90;13.63;;;8.70;89.50;;;;;;5005751;28;20472;-77
2022/03/31 00:54:18;;;;;;;28.40;12.90;;;8.60;89.30;;;;;;5012647;28;20480;-75
2022/03/31 00:56:44;;;;;;;25.83;13.20;;;8.60;88.70;;;;;;4991877;28;20429;-78
2022/03/31 00:59:13;;;;;;;27.50;14.10;;;8.60;88.30;;;;;;5002373;28;20430;-75
2022/03/31 01:01:40;;;;;;;29.90;14.13;;;8.60;88.00;;;;;;4990750;28;20578;-76
2022/03/31 01:04:09;;;;;;;27.50;13.23;;;8.50;87.80;;;;;;5014164;28;20934;-78
2022/03/31 01:06:35;;;;;;;29.67;13.33;;;8.50;87.80;;;;;;5013959;28;20420;-76
2022/03/31 01:09:02;;;;;;;26.97;13.87;;;8.40;88.10;;;;;;5013227;28;20934;-78
2022/03/31 01:11:29;;;;;;;26.17;12.30;;;8.40;88.00;;;;;;5013725;28;20481;-76
2022/03/31 01:13:55;;;;;;;24.00;12.40;;;8.40;87.70;;;;;;5014256;28;20851;-77
2022/03/31 01:16:21;;;;;;;24.93;14.17;;;8.40;87.80;;;;;;5013217;28;20449;-74
2022/03/31 01:18:48;;;;;;;30.70;12.50;;;8.40;88.00;;;;;;5012955;28;20432;-76
2022/03/31 01:21:13;;;;;;;26.97;12.50;;;8.40;88.00;;;;;;5014092;28;20997;-75
2022/03/31 01:23:39;;;;;;;21.87;11.33;;;8.40;87.70;;;;;;4996130;28;20448;-75
2022/03/31 01:26:09;;;;;;;26.77;12.90;;;8.40;87.10;;;;;;5012933;28;20427;-76
2022/03/31 01:28:39;;;;;;;27.40;12.40;;;8.40;87.30;;;;;;5013429;28;20437;-75
2022/03/31 01:31:04;;;;;;;29.47;13.10;;;8.40;87.10;;;;;;5013044;28;20475;-74
2022/03/31 01:33:34;;;;;;;27.17;13.47;;;8.40;86.90;;;;;;5013286;28;20437;-76
2022/03/31 01:36:06;;;;;;;26.63;11.23;;;8.30;87.10;;;;;;5011670;28;20192;-77
2022/03/31 01:38:32;;;;;;;24.50;12.93;;;8.20;87.30;;;;;;5006830;28;20480;-75
2022/03/31 01:40:58;;;;;;;23.03;11.40;;;8.20;87.60;;;;;;5014367;28;20433;-76
2022/03/31 01:43:24;;;;;;;24.80;12.57;;;8.30;87.30;;;;;;5014891;28;20210;-76
2022/03/31 01:45:49;;;;;;;28.17;13.07;;;8.30;87.30;;;;;;5001983;28;20800;-77
2022/03/31 01:48:16;;;;;;;19.90;11.00;;;8.30;87.10;;;;;;5014228;28;20424;-74
2022/03/31 01:50:42;;;;;;;25.63;11.17;;;8.30;87.10;;;;;;5017626;28;20235;-75
2022/03/31 01:53:09;;;;;;;29.03;12.67;;;8.30;87.30;;;;;;5017504;28;20536;-75
2022/03/31 01:55:35;;;;;;;24.00;11.93;;;8.40;87.40;;;;;;5017150;28;20438;-75
2022/03/31 01:58:01;;;;;;;26.50;12.00;;;8.40;87.30;;;;;;5017879;28;20945;-73
2022/03/31 02:00:26;;;;;;;22.50;11.80;;;8.40;87.40;;;;;;5018745;28;20425;-76
2022/03/31 02:02:52;;;;;;;31.20;13.60;;;8.30;87.10;;;;;;5015823;28;20202;-74
2022/03/31 02:05:18;;;;;;;26.40;12.17;;;8.30;87.60;;;;;;5005565;28;20656;-74
2022/03/31 02:07:44;;;;;;;30.07;13.63;;;8.30;87.70;;;;;;5015460;28;20266;-75
2022/03/31 02:10:12;;;;;;;30.27;15.00;;;8.30;87.60;;;;;;5014453;28;20428;-77
2022/03/31 02:12:39;;;;;;;27.27;12.87;;;8.30;87.60;;;;;;5014972;28;20214;-78
2022/03/31 02:15:05;;;;;;;30.93;14.50;;;8.20;87.30;;;;;;5015326;28;20417;-74
2022/03/31 02:17:32;;;;;;;28.77;12.83;;;8.20;87.60;;;;;;4997974;28;20926;-75
2022/03/31 02:19:58;;;;;;;33.03;14.97;;;8.10;87.80;;;;;;5015691;28;20516;-76
2022/03/31 02:22:24;;;;;;;28.87;14.57;;;8.00;88.00;;;;;;5014969;28;20879;-75
2022/03/31 02:24:49;;;;;;;32.60;14.57;;;8.00;88.60;;;;;;5015494;28;20578;-75
2022/03/31 02:27:15;;;;;;;25.33;12.30;;;8.00;88.60;;;;;;5014672;28;20182;-74
2022/03/31 02:29:41;;;;;;;24.70;12.60;;;8.00;88.40;;;;;;5014279;28;20185;-75
2022/03/31 02:32:07;;;;;;;27.70;13.97;;;8.00;88.30;;;;;;5013972;28;20304;-78
2022/03/31 02:34:34;;;;;;;28.93;13.63;;;7.90;87.60;;;;;;5013708;28;20280;-76
2022/03/31 02:37:00;;;;;;;23.53;11.90;;;7.90;88.10;;;;;;4995233;28;20421;-75
2022/03/31 02:39:29;;;;;;;20.97;11.63;;;7.90;88.10;;;;;;5012416;28;20413;-77
2022/03/31 02:41:57;;;;;;;27.57;13.37;;;8.00;88.00;;;;;;4995001;28;20421;-75
2022/03/31 02:44:24;;;;;;;26.33;12.80;;;8.00;87.80;;;;;;5004880;28;20456;-75
2022/03/31 02:46:51;;;;;;;30.50;13.90;;;7.90;87.70;;;;;;5001176;28;20425;-76
2022/03/31 02:49:17;;;;;;;30.40;13.83;;;8.00;88.10;;;;;;4994095;28;20426;-77
2022/03/31 02:51:43;;;;;;;35.27;16.23;;;7.70;89.20;;;;;;5015805;28;20487;-76
2022/03/31 02:56:53;;;;;;;32.33;16.20;;;7.20;91.00;;;;;;5017621;28;20229;-77
2022/03/31 02:59:19;;;;;;;29.53;14.10;;;7.20;91.50;;;;;;5020471;28;20417;-76
2022/03/31 03:01:45;;;;;;;37.27;17.13;;;7.10;91.60;;;;;;5021539;28;20461;-77
2022/03/31 03:04:11;;;;;;;30.70;15.53;;;7.10;91.60;;;;;;5007039;28;20499;-76
2022/03/31 03:06:37;;;;;;;34.70;16.47;;;7.20;91.70;;;;;;5014473;28;20186;-74
2022/03/31 03:09:04;;;;;;;30.53;15.83;;;7.20;91.50;;;;;;5020119;28;20486;-76
2022/03/31 03:11:30;;;;;;;32.00;15.70;;;7.10;91.40;;;;;;5014610;28;20471;-76
2022/03/31 03:13:55;;;;;;;30.50;14.47;;;7.10;91.60;;;;;;5017404;28;20445;-76
2022/03/31 03:16:21;;;;;;;33.23;15.50;;;7.10;91.60;;;;;;5019244;28;20201;-76
2022/03/31 03:18:47;;;;;;;36.20;16.43;;;7.10;91.50;;;;;;5013131;28;20185;-77
2022/03/31 03:21:13;;;;;;;34.20;15.23;;;7.00;91.50;;;;;;5012797;28;20198;-76
2022/03/31 03:23:39;;;;;;;35.57;17.00;;;6.90;91.70;;;;;;5019816;28;20289;-76
2022/03/31 03:26:06;;;;;;;30.63;16.50;;;6.90;91.90;;;;;;5026163;28;20201;-75
2022/03/31 03:28:34;;;;;;;33.57;15.93;;;6.90;92.10;;;;;;5007196;28;20425;-75
2022/03/31 03:31:00;;;;;;;31.80;16.13;;;6.90;91.80;;;;;;5022338;28;20453;-73
2022/03/31 03:33:25;;;;;;;34.73;15.30;;;6.80;92.00;;;;;;5019108;28;20521;-77
2022/03/31 03:35:51;;;;;;;34.10;16.43;;;6.80;92.20;;;;;;5016211;28;20190;-75
2022/03/31 03:38:17;;;;;;;34.00;16.27;;;6.90;92.10;;;;;;5013008;28;20192;-75
2022/03/31 03:40:43;;;;;;;32.47;15.97;;;6.90;91.90;;;;;;5017664;28;20181;-74
2022/03/31 03:43:10;;;;;;;33.20;16.60;;;6.90;91.80;;;;;;5011611;28;20205;-77
2022/03/31 03:45:37;;;;;;;34.73;16.30;;;6.90;91.70;;;;;;5005804;28;20420;-75
2022/03/31 03:48:04;;;;;;;34.27;17.00;;;6.80;91.60;;;;;;5011708;28;20849;-74
2022/03/31 03:50:30;;;;;;;36.40;16.40;;;6.70;91.60;;;;;;5011967;28;20519;-76
2022/03/31 03:52:56;;;;;;;33.40;15.63;;;6.70;91.90;;;;;;5011994;28;20524;-74
2022/03/31 03:55:23;;;;;;;32.50;16.30;;;6.70;91.80;;;;;;4994482;28;20535;-74
2022/03/31 03:57:49;;;;;;;31.87;15.97;;;6.70;91.90;;;;;;5011478;28;20420;-77
2022/03/31 04:00:15;;;;;;;36.33;16.23;;;6.70;91.90;;;;;;5011257;28;20421;-75
2022/03/31 04:02:41;;;;;;;32.30;16.47;;;6.70;91.90;;;;;;5005091;28;20444;-75
2022/03/31 04:05:07;;;;;;;37.00;17.53;;;6.70;91.70;;;;;;4998983;28;20444;-76
2022/03/31 04:07:33;;;;;;;29.57;15.17;;;6.70;91.70;;;;;;5010260;28;20451;-77
2022/03/31 04:09:59;;;;;;;30.33;15.30;;;6.80;91.60;;;;;;5010806;28;20459;-75
2022/03/31 04:12:24;;;;;;;35.07;16.70;;;6.70;91.40;;;;;;5009380;28;20209;-77
2022/03/31 04:14:50;;;;;;;35.87;16.60;;;6.80;91.30;;;;;;5010403;28;20182;-76
2022/03/31 04:17:16;;;;;;;34.30;15.90;;;6.70;91.20;;;;;;5001521;28;20197;-76
2022/03/31 04:19:45;;;;;;;31.63;15.00;;;6.70;91.20;;;;;;5010855;28;20201;-74
2022/03/31 04:22:11;;;;;;;31.93;15.90;;;6.70;91.30;;;;;;5005789;28;20543;-75
2022/03/31 04:24:36;;;;;;;34.00;17.10;;;6.70;91.30;;;;;;4996546;28;20455;-77
2022/03/31 04:27:03;;;;;;;35.67;17.10;;;6.60;91.30;;;;;;5007084;28;20199;-75
2022/03/31 04:29:28;;;;;;;33.37;17.20;;;6.40;91.60;;;;;;5012231;28;20243;-75
2022/03/31 04:31:54;;;;;;;43.67;18.60;;;6.30;92.10;;;;;;5006577;28;20968;-75
2022/03/31 04:34:20;;;;;;;38.63;17.67;;;6.20;92.40;;;;;;5004772;28;20208;-75
2022/03/31 04:36:46;;;;;;;35.33;17.03;;;6.20;92.70;;;;;;5006812;28;20232;-76
2022/03/31 04:39:13;;;;;;;34.17;16.40;;;6.30;93.00;;;;;;5009766;28;20416;-75
2022/03/31 04:41:40;;;;;;;36.97;17.20;;;6.40;92.80;;;;;;5012067;28;20783;-75
2022/03/31 04:44:06;;;;;;;38.93;19.20;;;6.50;92.60;;;;;;5012287;28;20532;-76
2022/03/31 04:46:33;;;;;;;36.13;16.10;;;6.50;92.50;;;;;;5009783;28;20421;-76
2022/03/31 04:49:02;;;;;;;37.73;17.37;;;6.40;92.60;;;;;;5005581;28;20432;-76
2022/03/31 04:51:28;;;;;;;38.27;17.20;;;6.30;92.50;;;;;;4994581;28;20468;-79
2022/03/31 04:53:54;;;;;;;39.33;17.73;;;6.30;92.80;;;;;;5000702;28;20456;-78
2022/03/31 04:56:20;;;;;;;42.40;17.17;;;6.30;92.80;;;;;;5010110;28;20186;-79
2022/03/31 04:58:46;;;;;;;34.30;16.40;;;6.30;92.80;;;;;;5013985;28;20436;-79
2022/03/31 05:01:12;;;;;;;41.70;17.20;;;6.40;92.70;;;;;;4999319;28;20428;-78
2022/03/31 05:03:39;;;;;;;36.23;17.60;;;6.40;92.60;;;;;;5014120;28;20198;-78
2022/03/31 05:06:06;;;;;;;33.13;15.57;;;6.40;92.30;;;;;;5016865;28;20427;-77
2022/03/31 05:08:32;;;;;;;37.37;16.50;;;6.30;92.30;;;;;;5021008;28;20544;-78
2022/03/31 05:10:58;;;;;;;35.10;15.20;;;6.30;92.30;;;;;;5024447;28;20510;-76
2022/03/31 05:13:24;;;;;;;35.30;17.63;;;6.10;92.30;;;;;;5026130;28;20440;-76
2022/03/31 05:15:50;;;;;;;37.77;16.07;;;6.00;92.40;;;;;;5028146;28;20209;-79
2022/03/31 05:18:16;;;;;;;32.07;16.10;;;6.10;92.60;;;;;;5014656;28;20190;-77
2022/03/31 05:20:43;;;;;;;30.63;15.53;;;6.00;92.30;;;;;;5026741;28;20483;-78
2022/03/31 05:23:10;;;;;;;37.33;15.87;;;6.00;92.50;;;;;;5021304;28;20456;-75
2022/03/31 05:25:35;;;;;;;38.40;15.83;;;5.90;92.70;;;;;;5008291;28;20428;-78
2022/03/31 05:28:01;;;;;;;29.93;15.60;;;5.80;92.90;;;;;;5024134;28;20432;-78
2022/03/31 05:30:27;;;;;;;31.00;15.40;;;6.00;93.10;;;;;;5020959;28;20684;-76
2022/03/31 05:32:53;;;;;;;30.60;14.20;;;6.10;92.90;;;;;;5018922;28;20455;-78
2022/03/31 05:35:20;;;;;;;35.17;14.90;;;6.20;92.50;;;;;;5014223;28;20190;-77
2022/03/31 05:37:47;;;;;;;37.87;16.27;;;6.10;92.20;;;;;;5010379;28;20421;-79
2022/03/31 05:40:14;;;;;;;30.67;15.27;;;6.10;92.20;;;;;;5016824;28;20507;-78
2022/03/31 05:42:40;;;;;;;33.00;15.27;;;6.20;92.20;;;;;;5019671;28;20495;-78
2022/03/31 05:45:09;;;;;;;42.47;17.73;;;6.30;92.20;;;;;;5028637;28;20443;-77
2022/03/31 05:47:35;;;;;;;33.23;15.67;;;6.40;92.00;;;;;;5034604;28;20421;-77
2022/03/31 05:50:01;;;;;;;27.53;14.80;;;6.40;91.60;;;;;;5032220;28;20444;-76
2022/03/31 05:52:27;;;;;;;33.33;16.40;;;6.50;91.60;;;;;;5022131;28;20465;-76
2022/03/31 05:54:53;;;;;;;34.07;14.97;;;6.50;91.30;;;;;;5031683;28;20990;-77
2022/03/31 05:57:19;;;;;;;33.37;15.37;;;6.50;91.10;;;;;;5032888;28;20192;-78
2022/03/31 05:59:44;;;;;;;35.07;15.80;;;6.60;91.10;;;;;;5029792;28;20353;-77
2022/03/31 06:02:11;;;;;;;30.40;15.70;;;6.70;91.00;;;;;;5034047;28;20250;-77
2022/03/31 06:04:37;;;;;;;31.20;14.97;;;6.70;90.70;;;;;;5029835;28;20216;-78
2022/03/31 06:07:04;;;;;;;35.77;15.40;;;6.60;90.70;;;;;;5024658;28;20464;-77
2022/03/31 06:09:30;;;;;;;34.10;15.67;;;6.60;90.80;;;;;;5020140;28;20480;-79
2022/03/31 06:11:56;;;;;;;32.53;15.73;;;6.70;90.90;;;;;;5021695;28;20473;-79
2022/03/31 06:14:21;;;;;;;29.43;15.30;;;6.70;90.80;;;;;;5019011;28;20202;-77
2022/03/31 06:16:49;;;;;;;29.07;15.67;;;6.70;90.40;;;;;;5011733;28;20292;-79
2022/03/31 06:19:15;;;;;;;39.77;16.27;;;6.70;90.40;;;;;;5015273;28;20212;-78
2022/03/31 06:21:41;;;;;;;29.43;13.73;;;6.70;90.40;;;;;;5015848;28;20433;-79
2022/03/31 06:24:07;;;;;;;32.23;16.33;;;6.70;90.50;;;;;;4997252;28;20487;-77
2022/03/31 06:26:33;;;;;;;32.43;15.70;;;6.70;90.60;;;;;;4997335;28;20577;-78
2022/03/31 06:29:00;;;;;;;31.80;14.70;;;6.70;90.70;;;;;;5021288;28;20437;-76
2022/03/31 06:31:26;;;;;;;37.70;15.80;;;6.80;90.60;;;;;;5022241;28;20452;-77
2022/03/31 06:33:53;;;;;;;33.70;15.23;;;6.70;90.20;;;;;;5037818;28;20507;-77
2022/03/31 06:36:19;;;;;;;38.63;16.77;;;6.70;90.40;;;;;;5037527;28;20437;-75
2022/03/31 06:38:46;;;;;;;35.53;16.20;;;6.70;90.40;;;;;;5033669;28;20437;-77
2022/03/31 06:41:15;;;;;;;33.40;16.00;;;6.70;90.60;;;;;;5030434;28;20428;-76
2022/03/31 06:43:45;;;;;;;31.43;15.40;;;6.70;90.50;;;;;;5029292;28;20465;-78
2022/03/31 06:46:11;;;;;;;34.20;15.70;;;6.70;90.50;;;;;;5030795;28;20425;-77
2022/03/31 06:48:38;;;;;;;32.33;16.90;;;6.70;90.20;;;;;;5023381;28;20461;-77
2022/03/31 06:51:05;;;;;;;33.93;16.87;;;6.60;90.60;;;;;;5027379;28;20464;-76
2022/03/31 06:53:31;;;;;;;36.40;15.67;;;6.60;90.70;;;;;;5023000;28;20495;-76
2022/03/31 06:55:57;;;;;;;36.47;15.60;;;6.70;90.80;;;;;;5021549;28;20432;-76
2022/03/31 06:58:25;;;;;;;32.27;15.90;;;6.70;90.40;;;;;;5001218;28;20425;-78
2022/03/31 07:00:52;;;;;;;32.53;16.10;;;6.70;90.70;;;;;;5010879;28;20194;-77
2022/03/31 07:03:18;;;;;;;36.00;15.97;;;6.80;90.70;;;;;;5012510;28;20532;-76
2022/03/31 07:05:43;;;;;;;41.30;17.00;;;6.70;90.20;;;;;;5013168;28;20539;-78
2022/03/31 07:08:10;;;;;;;37.53;16.17;;;6.70;90.50;;;;;;5012399;28;20479;-78
2022/03/31 07:10:36;;;;;;;37.10;16.00;;;6.80;90.50;;;;;;5012960;28;20202;-78
2022/03/31 07:13:02;;;;;;;33.00;15.30;;;6.80;90.40;;;;;;5013359;28;20441;-77
2022/03/31 07:15:28;;;;;;;30.77;14.50;;;6.90;90.20;;;;;;5007833;28;20986;-77
2022/03/31 07:17:55;;;;;;;35.50;16.03;;;7.00;90.00;;;;;;5012914;28;20489;-78
2022/03/31 07:20:24;;;;;;;35.03;15.00;;;7.10;89.70;;;;;;5014631;28;20425;-79
2022/03/31 07:22:50;;;;;;;32.90;15.73;;;7.20;89.30;;;;;;5010664;28;20437;-78
2022/03/31 07:25:17;;;;;;;29.70;14.00;;;7.10;88.90;;;;;;5011908;28;20443;-78
2022/03/31 07:27:44;;;;;;;34.33;17.07;;;7.00;89.60;;;;;;5007686;28;20459;-78
2022/03/31 07:30:14;;;;;;;32.20;15.77;;;6.80;89.70;;;;;;5014320;28;20437;-77
2022/03/31 07:33:00;;;;;;;33.97;15.70;;;6.70;90.10;;;;;;5009380;28;20492;-78
2022/03/31 07:35:29;;;;;;;35.10;16.80;;;6.80;90.50;;;;;;5005756;28;20421;-78
2022/03/31 07:37:56;;;;;;;38.70;17.27;;;6.90;90.70;;;;;;5009111;28;20774;-79
2022/03/31 07:40:23;;;;;;;34.37;15.43;;;6.90;90.30;;;;;;5013297;28;20840;-79
2022/03/31 07:42:49;;;;;;;36.57;16.33;;;6.90;90.20;;;;;;4999747;28;20441;-78
2022/03/31 07:45:16;;;;;;;45.60;22.70;;;6.90;90.40;;;;;;5013838;28;20857;-78
2022/03/31 07:47:42;;;;;;;40.97;16.90;;;7.10;90.50;;;;;;5013673;28;20946;-78
2022/03/31 07:50:13;;;;;;;35.43;16.07;;;7.20;89.90;;;;;;4995592;28;20525;-79
2022/03/31 07:52:40;;;;;;;38.73;16.53;;;7.20;89.20;;;;;;5013575;28;20460;-79
2022/03/31 07:55:08;;;;;;;34.90;16.50;;;7.10;89.00;;;;;;5005276;28;20436;-79
2022/03/31 07:57:34;;;;;;;39.70;17.90;;;7.10;89.90;;;;;;5013240;28;20448;-79
2022/03/31 08:00:00;;;;;;;34.33;16.80;;;7.10;89.30;;;;;;5012771;28;20429;-78
2022/03/31 08:02:26;;;;;;;33.20;16.70;;;7.00;89.70;;;;;;5013244;28;20200;-77
2022/03/31 08:04:53;;;;;;;39.43;17.30;;;7.00;90.20;;;;;;4999001;28;20984;-78
2022/03/31 08:07:19;;;;;;;37.97;16.37;;;7.10;90.30;;;;;;5002923;28;20436;-79
2022/03/31 08:09:45;;;;;;;37.47;17.10;;;7.10;90.00;;;;;;5001817;28;20429;-77
2022/03/31 08:12:11;;;;;;;42.80;18.20;;;7.30;89.90;;;;;;5006465;28;21346;-79
2022/03/31 08:14:37;;;;;;;37.13;17.40;;;7.40;89.50;;;;;;5013258;28;20623;-78
2022/03/31 08:17:03;;;;;;;37.13;17.73;;;7.50;88.70;;;;;;5012512;28;20228;-76
2022/03/31 08:19:32;;;;;;;41.63;19.20;;;7.30;88.60;;;;;;5012807;28;20545;-76
2022/03/31 08:22:02;;;;;;;33.53;15.73;;;7.20;89.00;;;;;;5013123;28;20433;-76
2022/03/31 08:24:30;;;;;;;37.37;16.07;;;7.10;89.60;;;;;;5005614;28;20540;-77
2022/03/31 08:26:58;;;;;;;36.10;16.20;;;7.20;89.70;;;;;;5010427;28;20421;-78
2022/03/31 08:29:25;;;;;;;31.97;16.17;;;7.30;89.70;;;;;;5012441;28;20912;-77
2022/03/31 08:31:52;;;;;;;36.07;16.33;;;7.50;89.30;;;;;;4996075;28;20495;-77
2022/03/31 08:34:18;;;;;;;42.70;19.53;;;7.60;88.40;;;;;;4993159;28;21159;-79
2022/03/31 08:36:43;;;;;;;34.03;17.80;;;7.70;88.10;;;;;;5007261;28;20509;-78
2022/03/31 08:39:09;;;;;;;40.90;16.67;;;7.80;88.30;;;;;;4999883;28;20431;-77
2022/03/31 08:41:35;;;;;;;43.10;17.90;;;7.90;88.10;;;;;;5013468;28;20189;-79
2022/03/31 08:44:02;;;;;;;37.33;18.17;;;8.00;87.60;;;;;;4994780;28;20440;-78
2022/03/31 08:46:33;;;;;;;38.73;17.40;;;8.20;86.90;;;;;;5016005;28;20432;-78
2022/03/31 08:49:00;;;;;;;34.60;17.20;;;8.20;85.70;;;;;;5010117;28;20436;-78
2022/03/31 08:51:26;;;;;;;35.20;18.67;;;8.20;86.30;;;;;;5016607;28;20564;-77
2022/03/31 08:53:52;;;;;;;34.47;17.37;;;8.30;86.20;;;;;;5010779;28;20447;-78
2022/03/31 08:56:18;;;;;;;38.90;17.63;;;8.40;85.60;;;;;;4998810;28;20429;-76
2022/03/31 08:58:45;;;;;;;33.27;16.30;;;8.50;85.30;;;;;;5016737;28;20185;-79
2022/03/31 09:01:14;;;;;;;39.90;19.03;;;8.50;84.60;;;;;;5017369;28;20186;-79
2022/03/31 09:03:41;;;;;;;35.73;16.80;;;8.60;84.40;;;;;;5015761;28;20436;-79
2022/03/31 09:06:10;;;;;;;39.67;18.60;;;8.60;84.40;;;;;;5016183;28;20427;-78
2022/03/31 09:08:35;;;;;;;38.30;17.63;;;8.60;84.40;;;;;;4999669;28;20453;-79
2022/03/31 09:11:03;;;;;;;38.30;18.07;;;8.50;84.40;;;;;;5015686;28;20550;-78
2022/03/31 09:13:29;;;;;;;36.27;17.33;;;8.60;84.90;;;;;;5004764;28;20206;-78
2022/03/31 09:16:01;;;;;;;39.57;19.40;;;8.80;84.40;;;;;;5022182;28;20448;-76
2022/03/31 09:18:28;;;;;;;40.00;18.57;;;8.60;84.00;;;;;;5023698;28;20241;-78
2022/03/31 09:20:58;;;;;;;35.90;17.90;;;8.50;84.40;;;;;;5014446;28;20500;-76
2022/03/31 09:23:26;;;;;;;42.67;19.20;;;8.50;85.20;;;;;;5024314;28;20432;-77
2022/03/31 09:26:00;;;;;;;38.23;16.37;;;8.50;85.00;;;;;;5016236;28;20482;-77
2022/03/31 09:28:26;;;;;;;41.00;19.40;;;8.40;85.20;;;;;;5016398;28;20412;-78
2022/03/31 09:30:54;;;;;;;48.33;18.00;;;8.30;85.70;;;;;;4996498;28;20977;-79
2022/03/31 09:33:29;;;;;;;40.23;16.53;;;8.30;86.20;;;;;;4999398;28;20206;-78
2022/03/31 09:36:18;;;;;;;39.43;18.77;;;8.40;85.70;;;;;;5017348;28;20435;-78
2022/03/31 09:38:51;;;;;;;34.87;16.13;;;8.60;85.50;;;;;;5008661;28;20421;-79
2022/03/31 09:41:26;;;;;;;34.87;17.40;;;8.80;84.40;;;;;;4993051;28;20425;-77
2022/03/31 09:43:54;;;;;;;45.27;19.60;;;8.80;84.10;;;;;;4999327;28;20448;-79
2022/03/31 09:46:29;;;;;;;38.47;17.53;;;8.60;84.30;;;;;;5018003;28;20425;-79
2022/03/31 09:48:56;;;;;;;39.30;17.73;;;8.50;85.30;;;;;;5001962;28;20425;-78
2022/03/31 09:51:24;;;;;;;39.80;17.50;;;8.50;85.00;;;;;;5017177;28;20819;-78
2022/03/31 09:53:54;;;;;;;40.67;18.80;;;8.60;85.20;;;;;;5017431;28;20452;-80
2022/03/31 09:56:22;;;;;;;38.43;17.30;;;8.80;85.00;;;;;;5015639;28;20935;-79
2022/03/31 09:58:49;;;;;;;39.40;18.70;;;8.90;84.40;;;;;;5016602;28;20475;-78
2022/03/31 10:01:17;;;;;;;39.10;19.67;;;9.20;83.70;;;;;;5017392;28;20443;-79
2022/03/31 10:03:43;;;;;;;38.73;17.97;;;9.50;82.10;;;;;;5009068;28;20453;-79
2022/03/31 10:06:09;;;;;;;35.90;18.93;;;9.70;81.70;;;;;;5024581;28;20425;-76
2022/03/31 10:08:42;;;;;;;39.03;18.60;;;9.80;80.50;;;;;;5021355;28;20867;-77
2022/03/31 10:11:10;;;;;;;37.30;17.30;;;9.80;80.00;;;;;;5026814;28;20202;-78
2022/03/31 10:13:47;;;;;;;35.83;17.30;;;10.00;80.50;;;;;;5029069;28;20433;-78
2022/03/31 10:16:17;;;;;;;35.63;17.40;;;10.20;78.70;;;;;;5023820;28;20440;-77
2022/03/31 10:18:48;;;;;;;38.80;17.60;;;10.30;78.70;;;;;;5021690;28;20417;-78
2022/03/31 10:21:26;;;;;;;39.30;17.90;;;10.60;78.10;;;;;;5015470;28;20517;-78
2022/03/31 10:26:37;;;;;;;37.93;18.03;;;10.50;77.10;;;;;;5016527;28;20451;-79
2022/03/31 10:29:14;;;;;;;45.90;19.20;;;10.30;78.00;;;;;;5016945;28;20436;-79
2022/03/31 10:31:45;;;;;;;39.53;17.90;;;10.30;78.90;;;;;;5016287;28;20471;-80
2022/03/31 10:34:14;;;;;;;35.83;17.10;;;10.50;78.40;;;;;;5014681;28;20506;-77
2022/03/31 10:36:41;;;;;;;38.20;18.50;;;10.70;77.60;;;;;;5014842;28;20417;-78
2022/03/31 10:39:15;;;;;;;35.53;16.50;;;10.60;77.10;;;;;;5015833;28;20416;-78
2022/03/31 10:41:42;;;;;;;33.23;17.37;;;10.60;77.80;;;;;;5023070;28;20425;-77
2022/03/31 10:44:11;;;;;;;32.53;16.07;;;10.50;77.70;;;;;;5019833;28;20977;-81
2022/03/31 10:46:38;;;;;;;39.27;19.33;;;10.50;78.30;;;;;;5014762;28;21253;-80
2022/03/31 10:49:10;;;;;;;36.20;18.27;;;10.30;78.70;;;;;;5014940;28;20978;-77
2022/03/31 10:51:39;;;;;;;40.30;19.30;;;10.20;79.50;;;;;;5014514;28;21056;-78
2022/03/31 10:54:08;;;;;;;44.30;18.67;;;10.10;79.70;;;;;;4993959;28;20616;-80
2022/03/31 10:56:34;;;;;;;41.97;18.90;;;10.00;80.80;;;;;;5014819;28;20486;-77
2022/03/31 10:59:03;;;;;;;37.80;18.57;;;10.00;81.10;;;;;;5014060;28;20448;-77
2022/03/31 11:01:40;;;;;;;34.67;17.07;;;10.10;80.80;;;;;;5021170;28;20431;-78
2022/03/31 11:04:11;;;;;;;41.20;20.30;;;10.10;81.10;;;;;;5019083;28;20436;-79
2022/03/31 11:06:51;;;;;;;41.33;19.93;;;10.20;80.50;;;;;;5009108;28;20429;-80
2022/03/31 11:09:20;;;;;;;37.17;18.53;;;10.40;80.30;;;;;;5014265;28;20479;-79
2022/03/31 11:11:50;;;;;;;39.37;18.83;;;10.40;80.00;;;;;;4996503;28;20831;-79
2022/03/31 11:14:17;;;;;;;38.63;18.20;;;10.40;79.60;;;;;;5007765;28;20442;-78
2022/03/31 11:16:44;;;;;;;35.20;17.87;;;10.30;79.70;;;;;;5007242;28;20523;-78
2022/03/31 11:19:11;;;;;;;37.13;18.10;;;10.10;80.60;;;;;;5018115;28;20417;-78
2022/03/31 11:21:46;;;;;;;40.90;19.90;;;10.00;81.80;;;;;;5015458;28;20463;-79
2022/03/31 11:24:13;;;;;;;46.03;19.60;;;9.90;81.70;;;;;;5015621;28;20444;-77
2022/03/31 11:26:43;;;;;;;41.93;18.90;;;9.90;82.10;;;;;;5014891;28;20494;-81
2022/03/31 11:29:18;;;;;;;45.53;20.10;;;10.00;82.50;;;;;;5014505;28;20879;-78
2022/03/31 11:31:48;;;;;;;39.77;18.23;;;10.00;82.40;;;;;;5003730;28;20468;-77
2022/03/31 11:34:19;;;;;;;38.10;18.87;;;10.20;82.10;;;;;;5011989;28;20535;-79
2022/03/31 11:36:45;;;;;;;40.30;18.37;;;10.30;81.20;;;;;;5013067;28;20421;-76
2022/03/31 11:39:11;;;;;;;46.87;20.20;;;10.00;81.90;;;;;;5013262;28;20939;-79
2022/03/31 11:41:39;;;;;;;41.43;20.37;;;9.90;82.70;;;;;;5013066;28;20425;-79
2022/03/31 11:44:07;;;;;;;43.73;21.20;;;10.00;83.10;;;;;;5013313;28;20492;-78
2022/03/31 11:46:41;;;;;;;43.97;18.60;;;10.00;82.20;;;;;;5013241;28;20506;-79
2022/03/31 11:49:18;;;;;;;46.00;21.83;;;10.10;82.50;;;;;;5013146;28;20425;-78
2022/03/31 11:51:58;;;;;;;36.67;17.30;;;10.10;82.40;;;;;;5009463;28;20994;-79
2022/03/31 11:54:26;;;;;;;38.80;19.70;;;10.20;81.90;;;;;;4995111;28;20511;-78
2022/03/31 11:57:03;;;;;;;44.43;19.00;;;10.10;82.10;;;;;;4994854;28;20425;-78
2022/03/31 11:59:29;;;;;;;40.23;18.30;;;10.20;81.90;;;;;;5002350;28;20470;-78
2022/03/31 12:01:56;;;;;;;35.83;17.70;;;10.20;82.40;;;;;;5012951;28;20436;-78
2022/03/31 12:04:31;;;;;;;41.53;18.37;;;10.50;81.50;;;;;;5012738;28;20456;-79
2022/03/31 12:06:59;;;;;;;36.17;17.90;;;10.60;80.50;;;;;;5011642;28;20511;-79
2022/03/31 12:09:26;;;;;;;40.90;19.17;;;10.50;80.20;;;;;;5012191;28;20474;-77
2022/03/31 12:11:56;;;;;;;44.20;20.33;;;10.40;80.80;;;;;;5012651;28;20506;-79
2022/03/31 12:14:24;;;;;;;40.73;18.23;;;10.30;81.20;;;;;;5013163;28;20437;-77
2022/03/31 12:16:55;;;;;;;37.30;17.83;;;10.10;82.70;;;;;;4995514;28;20961;-79
2022/03/31 12:19:22;;;;;;;43.30;19.57;;;10.30;82.50;;;;;;5013740;28;20563;-79
2022/03/31 12:21:54;;;;;;;40.73;18.37;;;10.20;82.20;;;;;;5020547;28;20426;-78
2022/03/31 12:24:21;;;;;;;44.10;19.13;;;10.30;82.10;;;;;;5019682;28;20444;-79
2022/03/31 12:26:54;;;;;;;40.23;18.20;;;10.60;81.50;;;;;;5015544;28;20433;-76
2022/03/31 12:29:21;;;;;;;41.30;18.33;;;10.70;80.50;;;;;;5010317;28;20417;-78
2022/03/31 12:31:48;;;;;;;31.33;15.40;;;11.00;80.20;;;;;;5009908;28;20471;-77
2022/03/31 12:34:14;;;;;;;37.00;17.90;;;10.90;79.00;;;;;;5015953;28;21010;-78
2022/03/31 12:36:42;;;;;;;38.63;18.00;;;10.80;79.90;;;;;;4994399;28;20428;-77
2022/03/31 12:39:08;;;;;;;37.83;15.40;;;10.90;79.50;;;;;;4997255;28;20934;-77
2022/03/31 12:41:37;;;;;;;39.80;19.33;;;10.90;79.90;;;;;;5011712;28;20474;-76